createdAt,value
2022-08-26T00:00:07.594Z,20.81
2022-08-26T00:01:07.159Z,20.83
2022-08-26T00:02:07.436Z,20.81
2022-08-26T00:03:07.506Z,20.83
2022-08-26T00:04:07.471Z,20.81
2022-08-26T00:05:07.423Z,20.81
2022-08-26T00:06:07.496Z,20.81
2022-08-26T00:07:07.594Z,20.81
2022-08-26T00:08:07.699Z,20.81
2022-08-26T00:09:08.163Z,20.81
2022-08-26T00:10:07.831Z,20.80
2022-08-26T00:11:07.861Z,20.79
2022-08-26T00:12:08.012Z,20.79
2022-08-26T00:13:08.687Z,20.77
2022-08-26T00:14:08.122Z,20.77
2022-08-26T00:15:08.206Z,20.77
2022-08-26T00:16:08.335Z,20.79
2022-08-26T00:17:08.730Z,20.77
2022-08-26T00:18:12.403Z,20.76
2022-08-26T00:19:08.558Z,20.74
2022-08-26T00:20:08.649Z,20.72
2022-08-26T00:21:08.680Z,20.72
2022-08-26T00:22:08.781Z,20.72
2022-08-26T00:23:09.010Z,20.71
2022-08-26T00:24:08.945Z,20.72
2022-08-26T00:25:09.121Z,20.72
2022-08-26T00:26:09.094Z,20.72
2022-08-26T00:27:09.203Z,20.71
2022-08-26T00:28:09.266Z,20.71
2022-08-26T00:29:09.521Z,20.71
2022-08-26T00:30:09.449Z,20.71
2022-08-26T00:31:10.948Z,20.68
2022-08-26T00:32:09.642Z,20.69
2022-08-26T00:33:09.957Z,20.66
2022-08-26T00:34:09.791Z,20.66
2022-08-26T00:35:09.855Z,20.68
2022-08-26T00:36:19.954Z,20.66
2022-08-26T00:37:13.402Z,20.66
2022-08-26T00:38:10.130Z,20.65
2022-08-26T00:39:10.218Z,20.64
2022-08-26T00:40:10.317Z,20.64
2022-08-26T00:41:10.398Z,20.62
2022-08-26T00:42:10.517Z,20.61
2022-08-26T00:43:10.651Z,20.59
2022-08-26T00:44:10.675Z,20.59
2022-08-26T00:45:11.626Z,20.59
2022-08-26T00:46:10.841Z,20.59
2022-08-26T00:47:10.934Z,20.59
2022-08-26T00:48:10.969Z,20.61
2022-08-26T00:49:11.991Z,20.61
2022-08-26T00:50:11.124Z,20.61
2022-08-26T00:51:11.250Z,20.59
2022-08-26T00:52:12.111Z,20.59
2022-08-26T00:53:11.356Z,20.56
2022-08-26T00:54:11.451Z,20.58
2022-08-26T00:55:11.537Z,20.56
2022-08-26T00:56:11.618Z,20.54
2022-08-26T00:57:16.458Z,20.53
2022-08-26T00:58:11.772Z,20.51
2022-08-26T00:59:11.872Z,20.51
2022-08-26T01:00:11.955Z,20.51
2022-08-26T01:01:12.061Z,20.51
2022-08-26T01:02:20.046Z,20.51
2022-08-26T01:03:12.792Z,20.50
2022-08-26T01:04:12.269Z,20.49
2022-08-26T01:05:12.353Z,20.49
2022-08-26T01:06:13.021Z,20.50
2022-08-26T01:07:12.514Z,20.47
2022-08-26T01:08:12.584Z,20.47
2022-08-26T01:09:12.670Z,20.49
2022-08-26T01:10:12.747Z,20.47
2022-08-26T01:11:12.816Z,20.46
2022-08-26T01:12:12.934Z,20.46
2022-08-26T01:13:12.983Z,20.43
2022-08-26T01:14:14.170Z,20.43
2022-08-26T01:15:13.161Z,20.42
2022-08-26T01:16:13.285Z,20.43
2022-08-26T01:17:13.351Z,20.42
2022-08-26T01:18:13.436Z,20.41
2022-08-26T01:19:13.517Z,20.39
2022-08-26T01:20:13.594Z,20.41
2022-08-26T01:21:13.714Z,20.39
2022-08-26T01:22:13.785Z,20.39
2022-08-26T01:23:13.867Z,20.39
2022-08-26T01:24:14.098Z,20.38
2022-08-26T01:25:14.032Z,20.38
2022-08-26T01:26:19.576Z,20.35
2022-08-26T01:27:14.217Z,20.38
2022-08-26T01:28:14.264Z,20.35
2022-08-26T01:29:14.361Z,20.35
2022-08-26T01:30:14.449Z,20.35
2022-08-26T01:31:14.571Z,20.34
2022-08-26T01:32:14.634Z,20.33
2022-08-26T01:33:14.703Z,20.33
2022-08-26T01:34:14.779Z,20.33
2022-08-26T01:35:14.871Z,20.31
2022-08-26T01:36:14.939Z,20.31
2022-08-26T01:37:15.773Z,20.28
2022-08-26T01:38:15.115Z,20.28
2022-08-26T01:39:15.152Z,20.27
2022-08-26T01:40:15.323Z,20.27
2022-08-26T01:41:19.684Z,20.25
2022-08-26T01:42:15.440Z,20.24
2022-08-26T01:43:15.470Z,20.24
2022-08-26T01:44:15.583Z,20.23
2022-08-26T01:45:15.662Z,20.21
2022-08-26T01:46:15.782Z,20.21
2022-08-26T01:47:15.814Z,20.23
2022-08-26T01:48:15.899Z,20.21
2022-08-26T01:49:15.981Z,20.21
2022-08-26T01:50:27.494Z,20.20
2022-08-26T01:51:16.140Z,20.20
2022-08-26T01:52:16.232Z,20.16
2022-08-26T01:53:16.326Z,20.13
2022-08-26T01:54:16.360Z,20.13
2022-08-26T01:55:32.045Z,20.13
2022-08-26T01:56:16.545Z,20.12
2022-08-26T01:57:16.648Z,20.12
2022-08-26T01:58:16.726Z,20.12
2022-08-26T01:59:16.800Z,20.12
2022-08-26T02:00:16.903Z,20.10
2022-08-26T02:01:17.038Z,20.09
2022-08-26T02:02:17.087Z,20.08
2022-08-26T02:03:17.365Z,20.09
2022-08-26T02:04:17.324Z,20.06
2022-08-26T02:05:17.314Z,20.06
2022-08-26T02:06:17.389Z,20.06
2022-08-26T02:07:17.481Z,20.05
2022-08-26T02:08:24.441Z,20.03
2022-08-26T02:09:17.641Z,20.03
2022-08-26T02:10:17.679Z,20.02
2022-08-26T02:11:18.399Z,20.02
2022-08-26T02:12:17.820Z,20.02
2022-08-26T02:13:17.903Z,20.00
2022-08-26T02:14:17.970Z,20.00
2022-08-26T02:15:18.059Z,19.98
2022-08-26T02:16:18.194Z,19.97
2022-08-26T02:17:18.239Z,19.95
2022-08-26T02:18:18.302Z,19.94
2022-08-26T02:19:18.374Z,19.91
2022-08-26T02:20:18.481Z,19.90
2022-08-26T02:21:18.524Z,19.87
2022-08-26T02:22:18.612Z,19.86
2022-08-26T02:23:18.688Z,19.83
2022-08-26T02:24:18.768Z,19.80
2022-08-26T02:25:18.837Z,19.80
2022-08-26T02:26:19.307Z,19.78
2022-08-26T02:27:19.042Z,19.75
2022-08-26T02:28:19.749Z,19.75
2022-08-26T02:29:19.166Z,19.75
2022-08-26T02:30:19.251Z,19.75
2022-08-26T02:31:19.364Z,19.75
2022-08-26T02:32:19.420Z,19.73
2022-08-26T02:33:19.463Z,19.72
2022-08-26T02:34:19.534Z,19.70
2022-08-26T02:35:20.155Z,19.70
2022-08-26T02:36:19.701Z,19.70
2022-08-26T02:37:19.816Z,19.68
2022-08-26T02:38:19.865Z,19.68
2022-08-26T02:39:22.390Z,19.65
2022-08-26T02:40:20.191Z,19.65
2022-08-26T02:41:20.101Z,19.65
2022-08-26T02:42:20.211Z,19.66
2022-08-26T02:43:31.218Z,19.66
2022-08-26T02:44:20.327Z,19.68
2022-08-26T02:45:23.277Z,19.68
2022-08-26T02:46:21.428Z,19.68
2022-08-26T02:47:20.615Z,19.66
2022-08-26T02:48:20.667Z,19.66
2022-08-26T02:49:20.751Z,19.65
2022-08-26T02:50:20.866Z,19.65
2022-08-26T02:51:20.930Z,19.63
2022-08-26T02:52:21.018Z,19.65
2022-08-26T02:53:25.248Z,19.63
2022-08-26T02:54:21.191Z,19.65
2022-08-26T02:55:21.267Z,19.63
2022-08-26T02:56:21.337Z,19.65
2022-08-26T02:57:22.150Z,19.61
2022-08-26T02:58:21.540Z,19.61
2022-08-26T02:59:24.391Z,19.61
2022-08-26T03:00:21.709Z,19.60
2022-08-26T03:01:21.849Z,19.60
2022-08-26T03:02:21.929Z,19.58
2022-08-26T03:03:22.470Z,19.58
2022-08-26T03:04:21.994Z,19.57
2022-08-26T03:05:22.092Z,19.57
2022-08-26T03:06:22.160Z,19.57
2022-08-26T03:07:22.207Z,19.55
2022-08-26T03:08:22.313Z,19.54
2022-08-26T03:09:22.363Z,19.54
2022-08-26T03:10:22.430Z,19.51
2022-08-26T03:11:22.500Z,19.50
2022-08-26T03:12:22.604Z,19.48
2022-08-26T03:13:22.647Z,19.48
2022-08-26T03:14:22.708Z,19.47
2022-08-26T03:15:22.781Z,19.47
2022-08-26T03:16:22.923Z,19.46
2022-08-26T03:17:22.958Z,19.42
2022-08-26T03:18:23.025Z,19.40
2022-08-26T03:19:23.105Z,19.39
2022-08-26T03:20:23.188Z,19.39
2022-08-26T03:21:23.258Z,19.39
2022-08-26T03:22:23.364Z,19.38
2022-08-26T03:23:23.413Z,19.36
2022-08-26T03:24:23.505Z,19.36
2022-08-26T03:25:23.588Z,19.35
2022-08-26T03:26:23.664Z,19.36
2022-08-26T03:27:23.746Z,19.36
2022-08-26T03:28:23.805Z,19.38
2022-08-26T03:29:23.938Z,19.35
2022-08-26T03:30:23.979Z,19.35
2022-08-26T03:31:24.056Z,19.35
2022-08-26T03:32:24.150Z,19.32
2022-08-26T03:33:24.187Z,19.32
2022-08-26T03:34:24.276Z,19.31
2022-08-26T03:35:24.365Z,19.31
2022-08-26T03:36:24.436Z,19.29
2022-08-26T03:37:24.521Z,19.29
2022-08-26T03:38:24.594Z,19.29
2022-08-26T03:39:24.676Z,19.29
2022-08-26T03:40:24.872Z,19.28
2022-08-26T03:41:24.832Z,19.24
2022-08-26T03:42:24.924Z,19.24
2022-08-26T03:43:24.983Z,19.21
2022-08-26T03:44:25.068Z,19.21
2022-08-26T03:45:25.144Z,19.20
2022-08-26T03:46:25.292Z,19.18
2022-08-26T03:47:25.348Z,19.15
2022-08-26T03:48:25.431Z,19.14
2022-08-26T03:49:25.513Z,19.11
2022-08-26T03:50:25.608Z,19.11
2022-08-26T03:51:25.698Z,19.08
2022-08-26T03:52:25.790Z,19.06
2022-08-26T03:53:25.859Z,19.06
2022-08-26T03:54:25.944Z,19.06
2022-08-26T03:55:26.008Z,19.06
2022-08-26T03:56:26.135Z,19.08
2022-08-26T03:57:26.218Z,19.08
2022-08-26T03:58:26.289Z,19.10
2022-08-26T03:59:26.363Z,19.13
2022-08-26T04:00:26.460Z,19.14
2022-08-26T04:01:26.565Z,19.15
2022-08-26T04:02:26.729Z,19.15
2022-08-26T04:03:26.785Z,19.15
2022-08-26T04:04:26.803Z,19.15
2022-08-26T04:05:26.879Z,19.15
2022-08-26T04:06:26.961Z,19.17
2022-08-26T04:07:27.056Z,19.15
2022-08-26T04:08:28.099Z,19.14
2022-08-26T04:09:27.189Z,19.14
2022-08-26T04:10:29.110Z,19.13
2022-08-26T04:11:27.420Z,19.13
2022-08-26T04:12:27.575Z,19.13
2022-08-26T04:13:27.576Z,19.13
2022-08-26T04:14:27.650Z,19.11
2022-08-26T04:15:27.724Z,19.08
2022-08-26T04:16:27.925Z,19.10
2022-08-26T04:17:27.912Z,19.08
2022-08-26T04:18:31.454Z,19.06
2022-08-26T04:19:28.074Z,19.06
2022-08-26T04:20:28.203Z,19.08
2022-08-26T04:21:28.214Z,19.06
2022-08-26T04:22:28.339Z,19.06
2022-08-26T04:23:28.448Z,19.05
2022-08-26T04:24:28.472Z,19.06
2022-08-26T04:25:28.549Z,19.06
2022-08-26T04:26:28.634Z,19.05
2022-08-26T04:27:28.720Z,19.02
2022-08-26T04:28:28.796Z,19.06
2022-08-26T04:29:28.873Z,19.02
2022-08-26T04:30:28.962Z,19.01
2022-08-26T04:31:29.054Z,18.99
2022-08-26T04:32:29.166Z,19.01
2022-08-26T04:33:33.091Z,18.99
2022-08-26T04:34:29.267Z,18.98
2022-08-26T04:35:29.344Z,18.98
2022-08-26T04:36:29.460Z,18.98
2022-08-26T04:37:29.513Z,18.98
2022-08-26T04:38:29.596Z,18.97
2022-08-26T04:39:29.698Z,18.97
2022-08-26T04:40:29.820Z,18.97
2022-08-26T04:41:29.848Z,18.97
2022-08-26T04:42:29.949Z,18.97
2022-08-26T04:43:30.032Z,18.95
2022-08-26T04:44:30.135Z,18.97
2022-08-26T04:45:30.186Z,18.95
2022-08-26T04:46:30.317Z,18.95
2022-08-26T04:47:32.303Z,18.97
2022-08-26T04:48:30.428Z,18.95
2022-08-26T04:49:35.533Z,18.97
2022-08-26T04:50:30.591Z,18.98
2022-08-26T04:51:30.673Z,18.95
2022-08-26T04:52:30.957Z,18.97
2022-08-26T04:53:30.837Z,18.97
2022-08-26T04:54:30.906Z,18.97
2022-08-26T04:55:39.657Z,18.97
2022-08-26T04:56:31.082Z,18.95
2022-08-26T04:57:31.189Z,18.98
2022-08-26T04:58:31.210Z,18.97
2022-08-26T04:59:32.595Z,18.97
2022-08-26T05:00:31.393Z,18.97
2022-08-26T05:01:31.569Z,18.98
2022-08-26T05:02:31.552Z,18.98
2022-08-26T05:03:31.607Z,18.99
2022-08-26T05:04:31.693Z,18.99
2022-08-26T05:05:31.762Z,19.01
2022-08-26T05:06:35.556Z,19.01
2022-08-26T05:07:31.963Z,18.99
2022-08-26T05:08:32.010Z,19.01
2022-08-26T05:09:32.076Z,18.99
2022-08-26T05:10:32.199Z,19.01
2022-08-26T05:11:32.235Z,18.98
2022-08-26T05:12:32.329Z,19.01
2022-08-26T05:13:32.413Z,18.99
2022-08-26T05:14:32.471Z,18.98
2022-08-26T05:15:32.663Z,19.01
2022-08-26T05:16:32.672Z,19.01
2022-08-26T05:17:32.791Z,19.02
2022-08-26T05:18:32.821Z,19.02
2022-08-26T05:19:32.901Z,19.01
2022-08-26T05:20:32.978Z,19.01
2022-08-26T05:21:33.045Z,19.02
2022-08-26T05:22:33.148Z,19.02
2022-08-26T05:23:33.196Z,19.02
2022-08-26T05:24:33.274Z,19.02
2022-08-26T05:25:33.340Z,19.05
2022-08-26T05:26:33.424Z,19.05
2022-08-26T05:27:33.503Z,19.05
2022-08-26T05:28:33.595Z,19.05
2022-08-26T05:29:33.666Z,19.05
2022-08-26T05:30:33.759Z,19.05
2022-08-26T05:31:33.880Z,19.06
2022-08-26T05:32:33.922Z,19.06
2022-08-26T05:33:34.006Z,19.05
2022-08-26T05:34:34.088Z,19.06
2022-08-26T05:35:34.197Z,19.10
2022-08-26T05:36:34.270Z,19.08
2022-08-26T05:37:34.379Z,19.08
2022-08-26T05:38:34.471Z,19.10
2022-08-26T05:39:34.535Z,19.08
2022-08-26T05:40:34.670Z,19.11
2022-08-26T05:41:36.496Z,19.10
2022-08-26T05:42:34.802Z,19.10
2022-08-26T05:43:34.868Z,19.10
2022-08-26T05:44:35.887Z,19.11
2022-08-26T05:45:35.014Z,19.10
2022-08-26T05:46:35.183Z,19.10
2022-08-26T05:47:35.176Z,19.11
2022-08-26T05:48:35.275Z,19.11
2022-08-26T05:49:35.345Z,19.13
2022-08-26T05:50:35.422Z,19.13
2022-08-26T05:51:35.495Z,19.11
2022-08-26T05:52:35.581Z,19.14
2022-08-26T05:53:35.626Z,19.14
2022-08-26T05:54:35.763Z,19.15
2022-08-26T05:55:35.812Z,19.15
2022-08-26T05:56:35.900Z,19.17
2022-08-26T05:57:40.404Z,19.17
2022-08-26T05:58:36.067Z,19.17
2022-08-26T05:59:36.159Z,19.20
2022-08-26T06:00:36.220Z,19.23
2022-08-26T06:01:36.299Z,19.21
2022-08-26T06:02:36.464Z,19.21
2022-08-26T06:03:36.449Z,19.23
2022-08-26T06:04:36.532Z,19.21
2022-08-26T06:05:39.198Z,19.23
2022-08-26T06:06:36.764Z,19.23
2022-08-26T06:07:36.828Z,19.24
2022-08-26T06:08:36.913Z,19.24
2022-08-26T06:09:37.015Z,19.23
2022-08-26T06:10:37.055Z,19.23
2022-08-26T06:11:37.100Z,19.23
2022-08-26T06:12:37.213Z,19.24
2022-08-26T06:13:37.268Z,19.25
2022-08-26T06:14:37.318Z,19.25
2022-08-26T06:15:37.545Z,19.24
2022-08-26T06:16:37.486Z,19.25
2022-08-26T06:17:37.593Z,19.28
2022-08-26T06:18:37.685Z,19.29
2022-08-26T06:19:37.740Z,19.29
2022-08-26T06:20:37.832Z,19.29
2022-08-26T06:21:37.866Z,19.28
2022-08-26T06:22:37.969Z,19.31
2022-08-26T06:23:38.034Z,19.31
2022-08-26T06:24:38.157Z,19.31
2022-08-26T06:25:38.249Z,19.31
2022-08-26T06:26:38.349Z,19.31
2022-08-26T06:27:38.416Z,19.32
2022-08-26T06:28:38.499Z,19.32
2022-08-26T06:29:38.559Z,19.33
2022-08-26T06:30:38.637Z,19.35
2022-08-26T06:31:40.058Z,19.35
2022-08-26T06:32:38.837Z,19.35
2022-08-26T06:33:38.917Z,19.36
2022-08-26T06:34:39.013Z,19.36
2022-08-26T06:35:39.089Z,19.38
2022-08-26T06:36:39.199Z,19.39
2022-08-26T06:37:39.289Z,19.38
2022-08-26T06:38:39.328Z,19.39
2022-08-26T06:39:41.164Z,19.38
2022-08-26T06:40:39.516Z,19.39
2022-08-26T06:41:43.254Z,19.42
2022-08-26T06:42:39.687Z,19.40
2022-08-26T06:43:39.784Z,19.40
2022-08-26T06:44:40.933Z,19.40
2022-08-26T06:45:39.942Z,19.42
2022-08-26T06:46:40.035Z,19.40
2022-08-26T06:47:40.112Z,19.42
2022-08-26T06:48:40.172Z,19.42
2022-08-26T06:49:40.244Z,19.43
2022-08-26T06:50:40.311Z,19.42
2022-08-26T06:51:40.396Z,19.42
2022-08-26T06:52:40.496Z,19.42
2022-08-26T06:53:41.146Z,19.43
2022-08-26T06:54:40.624Z,19.42
2022-08-26T06:55:40.715Z,19.42
2022-08-26T06:56:40.792Z,19.42
2022-08-26T06:57:41.155Z,19.42
2022-08-26T06:58:40.948Z,19.43
2022-08-26T06:59:41.013Z,19.43
2022-08-26T07:00:41.601Z,19.43
2022-08-26T07:01:42.975Z,19.46
2022-08-26T07:02:41.366Z,19.43
2022-08-26T07:03:41.350Z,19.46
2022-08-26T07:04:41.400Z,19.46
2022-08-26T07:05:41.474Z,19.47
2022-08-26T07:06:41.565Z,19.48
2022-08-26T07:07:41.668Z,19.47
2022-08-26T07:08:41.722Z,19.47
2022-08-26T07:09:41.812Z,19.47
2022-08-26T07:10:41.910Z,19.47
2022-08-26T07:11:41.962Z,19.50
2022-08-26T07:12:42.074Z,19.50
2022-08-26T07:13:42.114Z,19.50
2022-08-26T07:14:47.338Z,19.51
2022-08-26T07:15:42.304Z,19.51
2022-08-26T07:16:42.342Z,19.53
2022-08-26T07:17:42.434Z,19.53
2022-08-26T07:18:42.481Z,19.54
2022-08-26T07:19:42.572Z,19.55
2022-08-26T07:20:43.050Z,19.55
2022-08-26T07:21:42.722Z,19.57
2022-08-26T07:22:42.783Z,19.58
2022-08-26T07:23:42.862Z,19.60
2022-08-26T07:24:42.928Z,19.61
2022-08-26T07:25:42.998Z,19.63
2022-08-26T07:26:43.280Z,19.63
2022-08-26T07:27:43.166Z,19.66
2022-08-26T07:28:43.245Z,19.66
2022-08-26T07:29:43.346Z,19.68
2022-08-26T07:30:43.464Z,19.69
2022-08-26T07:31:43.572Z,19.69
2022-08-26T07:32:43.592Z,19.70
2022-08-26T07:33:43.628Z,19.73
2022-08-26T07:34:43.724Z,19.73
2022-08-26T07:35:43.836Z,19.75
2022-08-26T07:36:43.876Z,19.75
2022-08-26T07:37:44.017Z,19.76
2022-08-26T07:38:44.081Z,19.78
2022-08-26T07:39:44.143Z,19.78
2022-08-26T07:40:44.196Z,19.79
2022-08-26T07:41:44.306Z,19.80
2022-08-26T07:42:44.383Z,19.80
2022-08-26T07:43:44.451Z,19.83
2022-08-26T07:44:44.540Z,19.84
2022-08-26T07:45:44.588Z,19.86
2022-08-26T07:46:44.659Z,19.87
2022-08-26T07:47:44.760Z,19.88
2022-08-26T07:48:46.104Z,19.90
2022-08-26T07:49:44.974Z,19.90
2022-08-26T07:50:49.490Z,19.93
2022-08-26T07:51:45.090Z,19.93
2022-08-26T07:52:45.198Z,19.94
2022-08-26T07:53:45.257Z,19.94
2022-08-26T07:54:45.351Z,19.95
2022-08-26T07:55:45.452Z,19.94
2022-08-26T07:56:45.530Z,19.97
2022-08-26T07:57:45.640Z,19.97
2022-08-26T07:58:49.016Z,19.98
2022-08-26T07:59:45.779Z,19.98
2022-08-26T08:00:45.831Z,20.00
2022-08-26T08:01:45.966Z,20.00
2022-08-26T08:02:46.043Z,20.02
2022-08-26T08:03:46.098Z,20.00
2022-08-26T08:04:46.210Z,20.03
2022-08-26T08:05:46.346Z,20.03
2022-08-26T08:06:46.343Z,20.06
2022-08-26T08:07:46.491Z,20.06
2022-08-26T08:08:46.530Z,20.09
2022-08-26T08:09:46.612Z,20.08
2022-08-26T08:10:48.843Z,20.10
2022-08-26T08:11:46.757Z,20.10
2022-08-26T08:12:46.865Z,20.12
2022-08-26T08:13:46.955Z,20.12
2022-08-26T08:14:47.030Z,20.12
2022-08-26T08:15:47.141Z,20.15
2022-08-26T08:16:47.306Z,20.15
2022-08-26T08:17:47.313Z,20.16
2022-08-26T08:18:47.401Z,20.16
2022-08-26T08:19:47.468Z,20.18
2022-08-26T08:20:59.155Z,20.20
2022-08-26T08:21:47.690Z,20.21
2022-08-26T08:22:47.744Z,20.24
2022-08-26T08:23:47.829Z,20.24
2022-08-26T08:24:49.700Z,20.24
2022-08-26T08:25:48.010Z,20.27
2022-08-26T08:26:48.103Z,20.27
2022-08-26T08:27:48.171Z,20.30
2022-08-26T08:28:48.245Z,20.30
2022-08-26T08:29:48.321Z,20.33
2022-08-26T08:30:48.453Z,20.34
2022-08-26T08:31:56.548Z,20.33
2022-08-26T08:32:48.598Z,20.35
2022-08-26T08:33:48.637Z,20.38
2022-08-26T08:34:48.710Z,20.39
2022-08-26T08:35:48.815Z,20.41
2022-08-26T08:36:48.849Z,20.42
2022-08-26T08:37:48.953Z,20.43
2022-08-26T08:38:49.026Z,20.43
2022-08-26T08:39:49.271Z,20.47
2022-08-26T08:40:49.197Z,20.49
2022-08-26T08:41:49.255Z,20.50
2022-08-26T08:42:49.385Z,20.51
2022-08-26T08:43:49.395Z,20.54
2022-08-26T08:44:52.160Z,20.58
2022-08-26T08:45:49.781Z,20.59
2022-08-26T08:46:49.645Z,20.61
2022-08-26T08:47:49.712Z,20.62
2022-08-26T08:48:49.772Z,20.66
2022-08-26T08:49:49.888Z,20.68
2022-08-26T08:50:49.951Z,20.71
2022-08-26T08:51:50.046Z,20.76
2022-08-26T08:52:50.166Z,20.79
2022-08-26T08:53:50.205Z,20.83
2022-08-26T08:54:50.281Z,20.86
2022-08-26T08:55:50.386Z,20.90
2022-08-26T08:56:50.428Z,20.95
2022-08-26T08:58:02.447Z,20.99
2022-08-26T08:58:50.613Z,21.04
2022-08-26T08:59:50.701Z,21.05
2022-08-26T09:00:50.809Z,21.09
2022-08-26T09:01:52.286Z,21.13
2022-08-26T09:02:50.950Z,21.14
2022-08-26T09:03:51.006Z,21.17
2022-08-26T09:04:51.095Z,21.20
2022-08-26T09:05:51.244Z,21.21
2022-08-26T09:06:51.296Z,21.24
2022-08-26T09:07:51.339Z,21.27
2022-08-26T09:08:51.409Z,21.30
2022-08-26T09:09:51.497Z,21.32
2022-08-26T09:10:51.585Z,21.35
2022-08-26T09:11:51.651Z,21.38
2022-08-26T09:12:51.730Z,21.39
2022-08-26T09:13:51.825Z,21.41
2022-08-26T09:14:52.492Z,21.44
2022-08-26T09:15:52.013Z,21.46
2022-08-26T09:16:52.117Z,21.48
2022-08-26T09:17:52.174Z,21.51
2022-08-26T09:18:52.250Z,21.54
2022-08-26T09:19:52.332Z,21.54
2022-08-26T09:20:52.438Z,21.57
2022-08-26T09:21:53.505Z,21.60
2022-08-26T09:22:52.555Z,21.61
2022-08-26T09:23:52.636Z,21.64
2022-08-26T09:24:52.709Z,21.64
2022-08-26T09:26:52.847Z,21.69
2022-08-26T09:27:52.936Z,21.74
2022-08-26T09:28:53.019Z,21.74
2022-08-26T09:29:53.098Z,21.75
2022-08-26T09:30:53.260Z,21.78
2022-08-26T09:31:53.274Z,21.79
2022-08-26T09:32:55.953Z,21.82
2022-08-26T09:33:53.481Z,21.82
2022-08-26T09:34:53.522Z,21.85
2022-08-26T09:35:53.647Z,21.85
2022-08-26T09:36:53.689Z,21.88
2022-08-26T09:37:53.788Z,21.92
2022-08-26T09:38:53.856Z,21.94
2022-08-26T09:39:53.973Z,21.94
2022-08-26T09:40:58.927Z,21.95
2022-08-26T09:41:54.121Z,21.98
2022-08-26T09:42:54.222Z,21.99
2022-08-26T09:43:54.279Z,22.02
2022-08-26T09:44:54.363Z,22.02
2022-08-26T09:45:58.471Z,22.06
2022-08-26T09:46:54.502Z,22.07
2022-08-26T09:47:54.600Z,22.09
2022-08-26T09:48:54.744Z,22.09
2022-08-26T09:49:54.782Z,22.12
2022-08-26T09:50:54.944Z,22.13
2022-08-26T09:51:54.977Z,22.14
2022-08-26T09:52:55.077Z,22.16
2022-08-26T09:53:55.164Z,22.16
2022-08-26T09:54:55.251Z,22.16
2022-08-26T09:55:55.384Z,22.17
2022-08-26T09:56:55.379Z,22.16
2022-08-26T09:57:55.456Z,22.16
2022-08-26T09:58:55.554Z,22.17
2022-08-26T09:59:55.625Z,22.19
2022-08-26T10:00:55.786Z,22.20
2022-08-26T10:01:55.872Z,22.22
2022-08-26T10:02:57.978Z,22.22
2022-08-26T10:03:56.064Z,22.27
2022-08-26T10:04:56.020Z,22.28
2022-08-26T10:05:56.176Z,22.31
2022-08-26T10:06:56.286Z,22.34
2022-08-26T10:07:56.295Z,22.37
2022-08-26T10:08:56.351Z,22.37
2022-08-26T10:09:56.438Z,22.39
2022-08-26T10:10:56.550Z,22.41
2022-08-26T10:11:56.583Z,22.44
2022-08-26T10:12:56.643Z,22.46
2022-08-26T10:13:56.730Z,22.50
2022-08-26T10:14:56.822Z,22.52
2022-08-26T10:15:56.922Z,22.52
2022-08-26T10:16:57.037Z,22.53
2022-08-26T10:17:57.062Z,22.56
2022-08-26T10:19:00.154Z,22.56
2022-08-26T10:19:57.773Z,22.57
2022-08-26T10:20:57.369Z,22.59
2022-08-26T10:21:57.473Z,22.64
2022-08-26T10:22:57.478Z,22.65
2022-08-26T10:23:57.566Z,22.68
2022-08-26T10:24:57.645Z,22.71
2022-08-26T10:33:18.121Z,22.56
2022-08-26T10:37:55.083Z,22.46
2022-08-26T10:38:56.248Z,22.46
2022-08-26T10:41:33.738Z,22.44
2022-08-26T10:44:26.416Z,22.46
2022-08-26T10:45:27.463Z,22.47
2022-08-26T10:46:27.660Z,22.50
2022-08-26T10:47:27.538Z,22.53
2022-08-26T10:48:27.567Z,22.59
2022-08-26T10:49:27.657Z,22.64
2022-08-26T10:50:27.719Z,22.69
2022-08-26T10:51:27.793Z,22.72
2022-08-26T10:52:28.495Z,22.80
2022-08-26T10:53:27.991Z,22.83
2022-08-26T10:54:28.056Z,22.90
2022-08-26T10:55:28.140Z,22.94
2022-08-26T10:56:28.248Z,23.01
2022-08-26T10:57:28.366Z,23.05
2022-08-26T10:58:28.448Z,23.09
2022-08-26T10:59:29.419Z,23.12
2022-08-26T11:00:28.606Z,23.17
2022-08-26T11:01:28.741Z,23.19
2022-08-26T11:02:28.783Z,23.23
2022-08-26T11:03:29.254Z,23.24
2022-08-26T11:07:53.748Z,23.22
2022-08-26T11:28:33.636Z,23.19
2022-08-26T11:29:32.767Z,23.22
2022-08-26T11:30:32.877Z,23.24
2022-08-26T11:31:32.896Z,23.32
2022-08-26T11:32:33.011Z,23.40
2022-08-26T11:33:33.096Z,23.46
2022-08-26T11:37:54.553Z,23.55
2022-08-26T11:43:33.596Z,23.61
2022-08-26T11:44:34.645Z,23.62
2022-08-26T11:45:34.780Z,23.65
2022-08-26T11:46:34.820Z,23.70
2022-08-26T11:47:34.908Z,23.76
2022-08-26T11:48:34.995Z,23.83
2022-08-26T11:49:35.063Z,23.90
2022-08-26T11:50:35.185Z,23.95
2022-08-26T11:51:40.054Z,24.04
2022-08-26T11:52:35.341Z,24.13
2022-08-26T11:53:35.379Z,24.23
2022-08-26T11:54:35.930Z,24.31
2022-08-26T11:55:35.589Z,24.38
2022-08-26T11:56:35.675Z,24.44
2022-08-26T11:57:35.691Z,24.50
2022-08-26T11:58:35.774Z,24.57
2022-08-26T12:00:35.976Z,24.75
2022-08-26T12:01:36.197Z,24.80
2022-08-26T12:02:36.090Z,24.88
2022-08-26T12:03:36.374Z,24.94
2022-08-26T12:04:36.389Z,25.00
2022-08-26T12:05:36.364Z,25.09
2022-08-26T12:06:38.951Z,25.12
2022-08-26T12:07:36.534Z,25.17
2022-08-26T12:08:36.610Z,25.24
2022-08-26T12:09:36.726Z,25.30
2022-08-26T12:10:36.834Z,25.35
2022-08-26T12:11:36.875Z,25.42
2022-08-26T12:12:36.976Z,25.46
2022-08-26T12:13:37.064Z,25.49
2022-08-26T12:14:37.157Z,25.53
2022-08-26T12:15:37.426Z,25.57
2022-08-26T12:16:37.364Z,25.59
2022-08-26T12:17:37.395Z,25.61
2022-08-26T12:18:37.482Z,25.62
2022-08-26T12:19:37.542Z,25.67
2022-08-26T12:20:37.676Z,25.68
2022-08-26T12:21:37.699Z,25.69
2022-08-26T12:22:37.806Z,25.71
2022-08-26T12:23:37.888Z,25.72
2022-08-26T12:24:37.981Z,25.75
2022-08-26T12:25:38.048Z,25.75
2022-08-26T12:26:38.144Z,25.79
2022-08-26T12:27:38.204Z,25.83
2022-08-26T12:28:38.308Z,25.86
2022-08-26T12:29:38.351Z,25.90
2022-08-26T12:30:38.471Z,25.94
2022-08-26T12:31:38.531Z,25.97
2022-08-26T12:32:38.564Z,26.02
2022-08-26T12:33:38.639Z,26.06
2022-08-26T12:34:38.743Z,26.08
2022-08-26T12:35:38.787Z,26.09
2022-08-26T12:36:38.866Z,26.09
2022-08-26T12:37:38.942Z,26.17
2022-08-26T12:38:39.009Z,26.21
2022-08-26T12:39:39.084Z,26.24
2022-08-26T12:40:39.195Z,26.25
2022-08-26T12:41:39.261Z,26.27
2022-08-26T12:42:39.346Z,26.27
2022-08-26T12:43:39.425Z,26.29
2022-08-26T12:44:39.514Z,26.32
2022-08-26T12:45:39.623Z,26.32
2022-08-26T12:46:39.644Z,26.31
2022-08-26T12:47:43.491Z,26.32
2022-08-26T12:48:39.797Z,26.36
2022-08-26T12:49:39.874Z,26.36
2022-08-26T12:50:39.969Z,26.37
2022-08-26T12:51:40.035Z,26.37
2022-08-26T12:52:40.098Z,26.39
2022-08-26T12:53:40.149Z,26.37
2022-08-26T12:54:40.229Z,26.39
2022-08-26T12:55:40.371Z,26.39
2022-08-26T12:56:40.395Z,26.36
2022-08-26T12:57:40.463Z,26.37
2022-08-26T12:58:40.549Z,26.39
2022-08-26T12:59:40.621Z,26.39
2022-08-26T13:00:41.047Z,26.40
2022-08-26T13:01:40.926Z,26.42
2022-08-26T13:02:40.866Z,26.43
2022-08-26T13:03:40.938Z,26.46
2022-08-26T13:04:41.026Z,26.50
2022-08-26T13:05:41.129Z,26.50
2022-08-26T13:06:41.196Z,26.52
2022-08-26T13:07:41.314Z,26.54
2022-08-26T13:08:41.389Z,26.57
2022-08-26T13:09:41.459Z,26.58
2022-08-26T13:10:41.561Z,26.58
2022-08-26T13:11:41.654Z,26.59
2022-08-26T13:12:41.765Z,26.58
2022-08-26T13:13:41.806Z,26.59
2022-08-26T13:14:41.876Z,26.57
2022-08-26T13:15:41.981Z,26.57
2022-08-26T13:16:42.118Z,26.55
2022-08-26T13:17:42.139Z,26.58
2022-08-26T13:18:42.223Z,26.58
2022-08-26T13:19:42.306Z,26.59
2022-08-26T13:20:42.411Z,26.61
2022-08-26T13:21:42.513Z,26.62
2022-08-26T13:22:42.570Z,26.64
2022-08-26T13:23:42.737Z,26.64
2022-08-26T13:24:42.728Z,26.65
2022-08-26T13:25:42.814Z,26.67
2022-08-26T13:26:42.890Z,26.68
2022-08-26T13:27:42.958Z,26.72
2022-08-26T13:28:43.030Z,26.74
2022-08-26T13:29:43.109Z,26.74
2022-08-26T13:30:43.202Z,26.76
2022-08-26T13:31:43.311Z,26.77
2022-08-26T13:32:43.370Z,26.80
2022-08-26T13:33:43.477Z,26.80
2022-08-26T13:34:44.811Z,26.81
2022-08-26T13:35:43.652Z,26.83
2022-08-26T13:36:43.740Z,26.86
2022-08-26T13:37:43.854Z,26.86
2022-08-26T13:38:43.888Z,26.87
2022-08-26T13:39:43.993Z,26.87
2022-08-26T13:40:44.136Z,26.91